Milwaukee, Wisconsin
Traffic Map
Current Weather Conditions
Milwaukee, Wisconsin
Few Clouds
Few Clouds
47°
Feels Like: 41°
Wind Chill: 41° Ceiling: Unl
Heat Index: 47° Visibility: 10mi
Dew Point: 33° Wind: 13mph
Humidity: 59% Direction: 40° (NE)
Pressure: 30.15in Gusts: 0mph
Raw Report DataKMKE 272052Z 04011KT 10SM FEW050 FEW250 08/01 A3015 RMK AO2 SLP214 T00830006 51004
Traffic Incident Summary
Active as of:
Severity:
Category:
InformationThere was an issue retrieving the traffic information for this location. Please try a different location or try again shortly.
Advertisements
Track Severe Weather on mobile